sensor_id;sensor_type;location;lat;lon;timestamp;pressure;altitude;pressure_sealevel;temperature;humidity
33625;BME280;19962;47.820;1.930;2023-01-29T00:01:50;101920.50;;;5.75;63.24
33625;BME280;19962;47.820;1.930;2023-01-29T00:04:17;101907.19;;;5.64;63.25
33625;BME280;19962;47.820;1.930;2023-01-29T00:06:43;101909.72;;;5.65;63.55
33625;BME280;19962;47.820;1.930;2023-01-29T00:09:10;101914.28;;;5.49;63.83
33625;BME280;19962;47.820;1.930;2023-01-29T00:11:36;101918.88;;;5.48;64.05
33625;BME280;19962;47.820;1.930;2023-01-29T00:14:02;101919.22;;;5.45;63.52
33625;BME280;19962;47.820;1.930;2023-01-29T00:16:28;101913.06;;;5.35;63.99
33625;BME280;19962;47.820;1.930;2023-01-29T00:18:54;101902.00;;;5.03;64.16
33625;BME280;19962;47.820;1.930;2023-01-29T00:21:22;101901.81;;;5.38;64.21
33625;BME280;19962;47.820;1.930;2023-01-29T00:23:49;101896.09;;;5.49;64.07
33625;BME280;19962;47.820;1.930;2023-01-29T00:26:15;101895.72;;;5.44;63.75
33625;BME280;19962;47.820;1.930;2023-01-29T00:28:42;101906.81;;;5.51;63.99
33625;BME280;19962;47.820;1.930;2023-01-29T00:31:22;101905.97;;;5.58;63.53
33625;BME280;19962;47.820;1.930;2023-01-29T00:33:48;101920.91;;;5.46;63.73
33625;BME280;19962;47.820;1.930;2023-01-29T00:36:16;101917.69;;;5.51;64.02
33625;BME280;19962;47.820;1.930;2023-01-29T00:38:43;101921.56;;;5.40;63.76
33625;BME280;19962;47.820;1.930;2023-01-29T00:41:13;101911.06;;;5.53;63.92
33625;BME280;19962;47.820;1.930;2023-01-29T00:43:59;101920.78;;;5.56;63.49
33625;BME280;19962;47.820;1.930;2023-01-29T00:46:44;101924.66;;;5.45;63.63
33625;BME280;19962;47.820;1.930;2023-01-29T00:49:11;101929.84;;;5.31;63.82
33625;BME280;19962;47.820;1.930;2023-01-29T00:51:38;101928.19;;;5.38;64.32
33625;BME280;19962;47.820;1.930;2023-01-29T00:54:04;101923.47;;;5.48;64.01
33625;BME280;19962;47.820;1.930;2023-01-29T00:56:35;101927.25;;;5.55;63.14
33625;BME280;19962;47.820;1.930;2023-01-29T00:59:02;101927.72;;;5.50;64.05
33625;BME280;19962;47.820;1.930;2023-01-29T01:01:28;101928.72;;;5.41;63.71
33625;BME280;19962;47.820;1.930;2023-01-29T01:04:13;101929.72;;;5.40;63.60
33625;BME280;19962;47.820;1.930;2023-01-29T01:06:41;101935.88;;;5.50;63.42
33625;BME280;19962;47.820;1.930;2023-01-29T01:09:08;101936.06;;;5.15;64.05
33625;BME280;19962;47.820;1.930;2023-01-29T01:11:53;101945.56;;;5.11;64.37
33625;BME280;19962;47.820;1.930;2023-01-29T01:14:20;101935.97;;;5.25;63.94
33625;BME280;19962;47.820;1.930;2023-01-29T01:16:47;101936.16;;;5.31;63.63
33625;BME280;19962;47.820;1.930;2023-01-29T01:19:13;101940.06;;;5.29;63.58
33625;BME280;19962;47.820;1.930;2023-01-29T01:21:40;101935.13;;;5.32;63.42
33625;BME280;19962;47.820;1.930;2023-01-29T01:24:10;101932.06;;;5.27;63.82
33625;BME280;19962;47.820;1.930;2023-01-29T01:26:37;101930.75;;;5.47;63.94
33625;BME280;19962;47.820;1.930;2023-01-29T01:29:03;101924.16;;;5.58;63.20
33625;BME280;19962;47.820;1.930;2023-01-29T01:31:29;101924.69;;;5.53;63.65
33625;BME280;19962;47.820;1.930;2023-01-29T01:33:55;101922.59;;;5.39;63.55
33625;BME280;19962;47.820;1.930;2023-01-29T01:36:21;101930.09;;;5.45;63.44
33625;BME280;19962;47.820;1.930;2023-01-29T01:38:48;101929.94;;;5.47;63.28
33625;BME280;19962;47.820;1.930;2023-01-29T01:41:16;101932.41;;;5.32;63.11
33625;BME280;19962;47.820;1.930;2023-01-29T01:43:57;101929.66;;;5.24;63.70
33625;BME280;19962;47.820;1.930;2023-01-29T01:46:27;101923.94;;;5.35;63.73
33625;BME280;19962;47.820;1.930;2023-01-29T01:49:03;101927.09;;;5.23;63.39
33625;BME280;19962;47.820;1.930;2023-01-29T01:51:32;101921.84;;;5.21;63.72
33625;BME280;19962;47.820;1.930;2023-01-29T01:54:04;101925.31;;;5.06;63.74
33625;BME280;19962;47.820;1.930;2023-01-29T01:56:34;101915.78;;;5.02;63.92
33625;BME280;19962;47.820;1.930;2023-01-29T01:59:15;101921.31;;;4.92;64.22
33625;BME280;19962;47.820;1.930;2023-01-29T02:01:44;101939.69;;;4.98;64.46
33625;BME280;19962;47.820;1.930;2023-01-29T02:04:18;101928.19;;;5.04;64.74
33625;BME280;19962;47.820;1.930;2023-01-29T02:07:07;101925.88;;;5.17;64.28
33625;BME280;19962;47.820;1.930;2023-01-29T02:09:59;101925.53;;;5.20;64.44
33625;BME280;19962;47.820;1.930;2023-01-29T02:12:27;101923.84;;;5.19;64.54
33625;BME280;19962;47.820;1.930;2023-01-29T02:14:56;101911.22;;;5.10;64.70
33625;BME280;19962;47.820;1.930;2023-01-29T02:17:22;101917.53;;;5.19;64.80
33625;BME280;19962;47.820;1.930;2023-01-29T02:31:55;101922.03;;;5.02;65.54
33625;BME280;19962;47.820;1.930;2023-01-29T02:35:02;101926.00;;;5.08;66.15
33625;BME280;19962;47.820;1.930;2023-01-29T02:38:21;101937.75;;;5.08;65.57
33625;BME280;19962;47.820;1.930;2023-01-29T02:40:53;101932.78;;;5.04;65.92
33625;BME280;19962;47.820;1.930;2023-01-29T02:43:54;101926.75;;;4.92;65.64
33625;BME280;19962;47.820;1.930;2023-01-29T02:46:42;101934.31;;;5.06;66.04
33625;BME280;19962;47.820;1.930;2023-01-29T02:49:26;101925.94;;;5.00;65.67
33625;BME280;19962;47.820;1.930;2023-01-29T02:54:50;101940.00;;;4.87;66.14
33625;BME280;19962;47.820;1.930;2023-01-29T02:57:36;101933.63;;;4.53;66.57
33625;BME280;19962;47.820;1.930;2023-01-29T03:00:06;101940.63;;;4.81;66.59
33625;BME280;19962;47.820;1.930;2023-01-29T03:02:44;101942.22;;;4.92;66.04
33625;BME280;19962;47.820;1.930;2023-01-29T03:05:17;101936.25;;;4.88;65.78
33625;BME280;19962;47.820;1.930;2023-01-29T03:07:49;101948.88;;;4.97;65.91
33625;BME280;19962;47.820;1.930;2023-01-29T03:10:29;101946.22;;;5.05;65.67
33625;BME280;19962;47.820;1.930;2023-01-29T03:13:02;101947.16;;;5.22;65.30
33625;BME280;19962;47.820;1.930;2023-01-29T03:15:44;101948.63;;;5.08;65.05
33625;BME280;19962;47.820;1.930;2023-01-29T03:18:23;101944.56;;;5.12;64.96
33625;BME280;19962;47.820;1.930;2023-01-29T03:21:05;101946.13;;;5.23;64.87
33625;BME280;19962;47.820;1.930;2023-01-29T03:23:53;101939.69;;;5.24;64.58
33625;BME280;19962;47.820;1.930;2023-01-29T03:26:39;101937.41;;;5.11;64.50
33625;BME280;19962;47.820;1.930;2023-01-29T03:29:26;101936.31;;;5.30;64.67
33625;BME280;19962;47.820;1.930;2023-01-29T03:32:13;101937.59;;;5.18;63.48
33625;BME280;19962;47.820;1.930;2023-01-29T03:34:47;101927.22;;;5.13;64.30
33625;BME280;19962;47.820;1.930;2023-01-29T03:39:47;101930.78;;;5.14;64.56
33625;BME280;19962;47.820;1.930;2023-01-29T03:42:22;101931.56;;;5.32;64.65
33625;BME280;19962;47.820;1.930;2023-01-29T03:45:12;101920.88;;;5.38;64.19
33625;BME280;19962;47.820;1.930;2023-01-29T03:47:45;101921.75;;;5.47;63.92
33625;BME280;19962;47.820;1.930;2023-01-29T03:53:22;101917.94;;;5.24;63.65
33625;BME280;19962;47.820;1.930;2023-01-29T03:58:58;101921.31;;;4.92;64.32
33625;BME280;19962;47.820;1.930;2023-01-29T04:01:39;101915.31;;;5.14;64.34
33625;BME280;19962;47.820;1.930;2023-01-29T04:04:14;101916.81;;;5.09;64.12
33625;BME280;19962;47.820;1.930;2023-01-29T04:06:44;101905.00;;;4.92;64.48
33625;BME280;19962;47.820;1.930;2023-01-29T04:09:12;101917.22;;;4.88;64.42
33625;BME280;19962;47.820;1.930;2023-01-29T04:11:46;101913.84;;;4.94;64.64
33625;BME280;19962;47.820;1.930;2023-01-29T04:14:14;101915.44;;;5.05;64.56
33625;BME280;19962;47.820;1.930;2023-01-29T04:16:46;101917.16;;;5.06;64.24
33625;BME280;19962;47.820;1.930;2023-01-29T04:19:13;101908.09;;;4.97;64.50
33625;BME280;19962;47.820;1.930;2023-01-29T04:21:39;101919.88;;;4.80;64.99
33625;BME280;19962;47.820;1.930;2023-01-29T04:24:07;101918.97;;;4.72;65.42
33625;BME280;19962;47.820;1.930;2023-01-29T04:29:42;101917.69;;;4.58;64.88
33625;BME280;19962;47.820;1.930;2023-01-29T04:38:10;101921.03;;;4.52;66.18
33625;BME280;19962;47.820;1.930;2023-01-29T04:43:34;101922.66;;;4.45;65.96
33625;BME280;19962;47.820;1.930;2023-01-29T04:51:23;101913.19;;;4.06;66.87
33625;BME280;19962;47.820;1.930;2023-01-29T04:54:15;101917.38;;;4.01;66.74
33625;BME280;19962;47.820;1.930;2023-01-29T04:59:44;101905.97;;;3.97;66.72
33625;BME280;19962;47.820;1.930;2023-01-29T05:02:13;101907.28;;;3.93;67.19
33625;BME280;19962;47.820;1.930;2023-01-29T05:04:40;101931.25;;;3.80;67.41
33625;BME280;19962;47.820;1.930;2023-01-29T05:07:12;101932.41;;;3.78;67.70
33625;BME280;19962;47.820;1.930;2023-01-29T05:09:40;101933.88;;;3.72;67.50
33625;BME280;19962;47.820;1.930;2023-01-29T05:12:09;101936.81;;;3.61;67.99
33625;BME280;19962;47.820;1.930;2023-01-29T05:14:37;101933.88;;;3.72;68.34
33625;BME280;19962;47.820;1.930;2023-01-29T05:17:09;101930.47;;;4.05;68.11
33625;BME280;19962;47.820;1.930;2023-01-29T05:19:38;101930.31;;;3.89;67.71
33625;BME280;19962;47.820;1.930;2023-01-29T05:22:05;101939.00;;;3.75;68.00
33625;BME280;19962;47.820;1.930;2023-01-29T05:24:35;101936.13;;;3.94;68.34
33625;BME280;19962;47.820;1.930;2023-01-29T05:27:01;101941.03;;;4.08;67.70
33625;BME280;19962;47.820;1.930;2023-01-29T05:29:47;101947.00;;;3.94;67.64
33625;BME280;19962;47.820;1.930;2023-01-29T05:32:13;101944.47;;;4.10;67.65
33625;BME280;19962;47.820;1.930;2023-01-29T05:34:40;101944.81;;;3.98;67.39
33625;BME280;19962;47.820;1.930;2023-01-29T05:37:07;101934.19;;;4.04;67.56
33625;BME280;19962;47.820;1.930;2023-01-29T05:39:34;101945.22;;;4.03;67.28
33625;BME280;19962;47.820;1.930;2023-01-29T05:42:00;101941.66;;;4.02;67.35
33625;BME280;19962;47.820;1.930;2023-01-29T05:44:26;101938.78;;;4.04;67.59
33625;BME280;19962;47.820;1.930;2023-01-29T05:46:52;101932.66;;;4.19;67.30
33625;BME280;19962;47.820;1.930;2023-01-29T05:49:19;101929.72;;;4.13;66.82
33625;BME280;19962;47.820;1.930;2023-01-29T05:51:45;101941.63;;;3.85;67.33
33625;BME280;19962;47.820;1.930;2023-01-29T05:54:12;101924.88;;;4.07;67.73
33625;BME280;19962;47.820;1.930;2023-01-29T05:56:39;101927.13;;;3.94;67.24
33625;BME280;19962;47.820;1.930;2023-01-29T05:59:05;101922.63;;;3.67;67.93
33625;BME280;19962;47.820;1.930;2023-01-29T06:01:32;101935.06;;;3.60;68.11
33625;BME280;19962;47.820;1.930;2023-01-29T06:03:58;101936.59;;;3.90;68.60
33625;BME280;19962;47.820;1.930;2023-01-29T06:06:24;101936.72;;;3.71;67.49
33625;BME280;19962;47.820;1.930;2023-01-29T06:08:50;101939.72;;;3.50;68.06
33625;BME280;19962;47.820;1.930;2023-01-29T06:11:17;101942.13;;;3.53;68.79
33625;BME280;19962;47.820;1.930;2023-01-29T06:13:44;101941.47;;;3.86;67.94
33625;BME280;19962;47.820;1.930;2023-01-29T06:16:11;101951.66;;;3.84;67.91
33625;BME280;19962;47.820;1.930;2023-01-29T06:18:39;101952.53;;;4.02;67.30
33625;BME280;19962;47.820;1.930;2023-01-29T06:21:08;101948.50;;;4.06;66.93
33625;BME280;19962;47.820;1.930;2023-01-29T06:23:35;101950.88;;;4.09;66.96
33625;BME280;19962;47.820;1.930;2023-01-29T06:26:02;101962.47;;;4.11;66.78
33625;BME280;19962;47.820;1.930;2023-01-29T06:28:29;101961.50;;;3.85;66.71
33625;BME280;19962;47.820;1.930;2023-01-29T06:30:59;101972.66;;;3.55;66.90
33625;BME280;19962;47.820;1.930;2023-01-29T06:33:26;101970.59;;;3.40;67.87
33625;BME280;19962;47.820;1.930;2023-01-29T06:36:00;101977.84;;;3.49;68.19
33625;BME280;19962;47.820;1.930;2023-01-29T06:38:27;101971.19;;;3.70;67.81
33625;BME280;19962;47.820;1.930;2023-01-29T06:40:54;101976.44;;;3.72;67.06
33625;BME280;19962;47.820;1.930;2023-01-29T06:43:21;101976.78;;;3.59;67.62
33625;BME280;19962;47.820;1.930;2023-01-29T06:45:52;101984.66;;;3.80;67.31
33625;BME280;19962;47.820;1.930;2023-01-29T06:48:18;101992.38;;;3.57;67.28
33625;BME280;19962;47.820;1.930;2023-01-29T06:50:45;101988.69;;;3.49;67.68
33625;BME280;19962;47.820;1.930;2023-01-29T06:53:12;101988.03;;;3.37;67.70
33625;BME280;19962;47.820;1.930;2023-01-29T06:55:38;101989.47;;;3.32;68.37
33625;BME280;19962;47.820;1.930;2023-01-29T06:58:09;101985.16;;;3.48;67.53
33625;BME280;19962;47.820;1.930;2023-01-29T07:00:36;101980.81;;;3.55;67.87
33625;BME280;19962;47.820;1.930;2023-01-29T07:03:03;101988.19;;;3.63;67.43
33625;BME280;19962;47.820;1.930;2023-01-29T07:05:30;101988.59;;;3.41;67.80
33625;BME280;19962;47.820;1.930;2023-01-29T07:07:56;101992.38;;;3.30;67.88
33625;BME280;19962;47.820;1.930;2023-01-29T07:10:23;101988.94;;;3.55;67.90
33625;BME280;19962;47.820;1.930;2023-01-29T07:12:49;102001.94;;;3.61;67.60
33625;BME280;19962;47.820;1.930;2023-01-29T07:15:15;102005.75;;;3.68;67.37
33625;BME280;19962;47.820;1.930;2023-01-29T07:17:56;102005.06;;;3.66;67.16
33625;BME280;19962;47.820;1.930;2023-01-29T07:20:24;102008.59;;;3.67;67.34
33625;BME280;19962;47.820;1.930;2023-01-29T07:22:51;102019.19;;;3.60;67.61
33625;BME280;19962;47.820;1.930;2023-01-29T07:25:17;102023.81;;;3.50;67.71
33625;BME280;19962;47.820;1.930;2023-01-29T07:27:43;102020.75;;;3.63;67.47
33625;BME280;19962;47.820;1.930;2023-01-29T07:30:09;102033.16;;;3.38;67.94
33625;BME280;19962;47.820;1.930;2023-01-29T07:32:36;102032.31;;;3.38;68.22
33625;BME280;19962;47.820;1.930;2023-01-29T07:35:02;102035.88;;;3.38;68.51
33625;BME280;19962;47.820;1.930;2023-01-29T07:37:28;102030.38;;;3.57;68.33
33625;BME280;19962;47.820;1.930;2023-01-29T07:39:54;102032.22;;;3.84;67.99
33625;BME280;19962;47.820;1.930;2023-01-29T07:42:20;102029.47;;;3.93;67.71
33625;BME280;19962;47.820;1.930;2023-01-29T07:44:46;102031.88;;;3.96;67.48
33625;BME280;19962;47.820;1.930;2023-01-29T07:47:12;102038.19;;;3.87;67.44
33625;BME280;19962;47.820;1.930;2023-01-29T07:49:38;102039.81;;;3.53;67.94
33625;BME280;19962;47.820;1.930;2023-01-29T07:52:04;102036.91;;;3.64;68.58
33625;BME280;19962;47.820;1.930;2023-01-29T07:54:30;102043.50;;;3.89;68.00
33625;BME280;19962;47.820;1.930;2023-01-29T07:56:56;102041.38;;;4.10;67.68
33625;BME280;19962;47.820;1.930;2023-01-29T07:59:22;102035.94;;;3.56;68.73
33625;BME280;19962;47.820;1.930;2023-01-29T08:01:49;102040.91;;;3.60;68.77
33625;BME280;19962;47.820;1.930;2023-01-29T08:04:15;102039.19;;;3.69;68.68
33625;BME280;19962;47.820;1.930;2023-01-29T08:06:41;102033.09;;;3.84;68.56
33625;BME280;19962;47.820;1.930;2023-01-29T08:09:07;102030.66;;;4.08;67.95
33625;BME280;19962;47.820;1.930;2023-01-29T08:11:33;102026.34;;;4.15;67.48
33625;BME280;19962;47.820;1.930;2023-01-29T08:13:59;102028.66;;;4.10;67.95
33625;BME280;19962;47.820;1.930;2023-01-29T08:16:25;102022.78;;;4.32;67.89
33625;BME280;19962;47.820;1.930;2023-01-29T08:18:52;102025.09;;;4.45;67.21
33625;BME280;19962;47.820;1.930;2023-01-29T08:21:18;102029.44;;;4.38;67.19
33625;BME280;19962;47.820;1.930;2023-01-29T08:23:44;102026.97;;;4.27;67.29
33625;BME280;19962;47.820;1.930;2023-01-29T08:26:10;102032.94;;;4.30;67.92
33625;BME280;19962;47.820;1.930;2023-01-29T08:28:36;102039.13;;;4.40;67.68
33625;BME280;19962;47.820;1.930;2023-01-29T08:31:04;102029.59;;;4.36;67.70
33625;BME280;19962;47.820;1.930;2023-01-29T08:33:37;102037.19;;;4.33;67.86
33625;BME280;19962;47.820;1.930;2023-01-29T08:36:03;102038.59;;;4.19;68.24
33625;BME280;19962;47.820;1.930;2023-01-29T08:38:32;102040.41;;;4.28;68.40
33625;BME280;19962;47.820;1.930;2023-01-29T08:40:58;102031.38;;;4.45;68.04
33625;BME280;19962;47.820;1.930;2023-01-29T08:43:24;102031.72;;;4.42;67.88
33625;BME280;19962;47.820;1.930;2023-01-29T08:45:50;102038.13;;;4.59;67.63
33625;BME280;19962;47.820;1.930;2023-01-29T08:48:17;102035.28;;;4.60;67.21
33625;BME280;19962;47.820;1.930;2023-01-29T08:50:43;102036.81;;;4.45;67.52
33625;BME280;19962;47.820;1.930;2023-01-29T08:53:09;102037.75;;;4.36;68.01
33625;BME280;19962;47.820;1.930;2023-01-29T08:55:37;102035.19;;;4.52;67.81
33625;BME280;19962;47.820;1.930;2023-01-29T08:58:05;102024.94;;;4.64;67.61
33625;BME280;19962;47.820;1.930;2023-01-29T09:00:32;102013.19;;;4.63;67.68
33625;BME280;19962;47.820;1.930;2023-01-29T09:02:59;102014.44;;;4.86;67.45
33625;BME280;19962;47.820;1.930;2023-01-29T09:05:26;102025.59;;;4.83;66.62
33625;BME280;19962;47.820;1.930;2023-01-29T09:07:53;102025.38;;;4.77;66.91
33625;BME280;19962;47.820;1.930;2023-01-29T09:10:19;102024.97;;;4.89;66.94
33625;BME280;19962;47.820;1.930;2023-01-29T09:12:45;102014.53;;;5.02;66.77
33625;BME280;19962;47.820;1.930;2023-01-29T09:15:11;102013.56;;;5.11;66.49
33625;BME280;19962;47.820;1.930;2023-01-29T09:17:38;102021.47;;;4.97;66.44
33625;BME280;19962;47.820;1.930;2023-01-29T09:20:04;102025.31;;;4.86;66.88
33625;BME280;19962;47.820;1.930;2023-01-29T09:22:33;102020.63;;;4.96;67.06
33625;BME280;19962;47.820;1.930;2023-01-29T09:24:59;102017.25;;;5.02;66.89
33625;BME280;19962;47.820;1.930;2023-01-29T09:27:25;102017.22;;;5.20;66.55
33625;BME280;19962;47.820;1.930;2023-01-29T09:29:51;102015.38;;;5.28;66.32
33625;BME280;19962;47.820;1.930;2023-01-29T09:32:17;102005.56;;;5.35;66.16
33625;BME280;19962;47.820;1.930;2023-01-29T09:34:43;101997.56;;;5.34;65.86
33625;BME280;19962;47.820;1.930;2023-01-29T09:37:10;102001.09;;;5.26;66.38
33625;BME280;19962;47.820;1.930;2023-01-29T09:39:36;101997.78;;;5.40;66.20
33625;BME280;19962;47.820;1.930;2023-01-29T09:42:25;102005.31;;;5.54;66.08
33625;BME280;19962;47.820;1.930;2023-01-29T09:47:26;102012.34;;;5.65;65.41
33625;BME280;19962;47.820;1.930;2023-01-29T09:49:58;102017.47;;;5.68;65.15
33625;BME280;19962;47.820;1.930;2023-01-29T09:52:26;102025.81;;;5.74;65.04
33625;BME280;19962;47.820;1.930;2023-01-29T09:55:11;102013.34;;;5.56;64.89
33625;BME280;19962;47.820;1.930;2023-01-29T09:57:52;102018.06;;;5.54;65.19
33625;BME280;19962;47.820;1.930;2023-01-29T10:00:30;102011.28;;;5.58;65.39
33625;BME280;19962;47.820;1.930;2023-01-29T10:14:21;102034.28;;;4.87;66.64
33625;BME280;19962;47.820;1.930;2023-01-29T10:19:49;102027.31;;;5.10;66.82
33625;BME280;19962;47.820;1.930;2023-01-29T10:25:17;102029.41;;;5.41;66.15
33625;BME280;19962;47.820;1.930;2023-01-29T10:27:50;102021.75;;;5.70;65.74
33625;BME280;19962;47.820;1.930;2023-01-29T10:30:25;102023.44;;;5.71;64.72
33625;BME280;19962;47.820;1.930;2023-01-29T10:32:55;102021.34;;;5.57;63.97
33625;BME280;19962;47.820;1.930;2023-01-29T10:35:28;102017.44;;;5.60;64.58
33625;BME280;19962;47.820;1.930;2023-01-29T10:38:01;102020.38;;;5.66;63.78
33625;BME280;19962;47.820;1.930;2023-01-29T10:44:04;102011.13;;;5.59;62.84
33625;BME280;19962;47.820;1.930;2023-01-29T10:49:24;102016.00;;;5.48;63.81
33625;BME280;19962;47.820;1.930;2023-01-29T10:54:59;102024.09;;;5.65;63.77
33625;BME280;19962;47.820;1.930;2023-01-29T10:58:02;102016.53;;;5.85;63.02
33625;BME280;19962;47.820;1.930;2023-01-29T11:00:42;101998.91;;;6.05;62.76
33625;BME280;19962;47.820;1.930;2023-01-29T11:03:22;101998.44;;;6.17;62.51
33625;BME280;19962;47.820;1.930;2023-01-29T11:08:23;101982.44;;;6.22;62.63
33625;BME280;19962;47.820;1.930;2023-01-29T11:13:34;101964.91;;;6.33;61.66
33625;BME280;19962;47.820;1.930;2023-01-29T11:16:04;101963.72;;;6.19;62.09
33625;BME280;19962;47.820;1.930;2023-01-29T11:18:55;101958.53;;;6.00;61.75
33625;BME280;19962;47.820;1.930;2023-01-29T11:21:22;101965.66;;;5.85;62.85
33625;BME280;19962;47.820;1.930;2023-01-29T11:23:50;101959.22;;;5.94;62.82
33625;BME280;19962;47.820;1.930;2023-01-29T11:26:19;101951.53;;;5.82;62.32
33625;BME280;19962;47.820;1.930;2023-01-29T11:28:48;101954.25;;;5.82;62.48
33625;BME280;19962;47.820;1.930;2023-01-29T11:31:26;101949.41;;;5.76;62.41
33625;BME280;19962;47.820;1.930;2023-01-29T11:34:04;101953.75;;;5.86;62.85
33625;BME280;19962;47.820;1.930;2023-01-29T11:36:36;101939.44;;;5.92;62.47
33625;BME280;19962;47.820;1.930;2023-01-29T11:39:19;101934.88;;;5.93;63.15
33625;BME280;19962;47.820;1.930;2023-01-29T11:41:59;101939.31;;;6.02;62.60
33625;BME280;19962;47.820;1.930;2023-01-29T11:44:39;101935.78;;;5.68;61.85
33625;BME280;19962;47.820;1.930;2023-01-29T11:49:52;101925.81;;;5.92;62.72
33625;BME280;19962;47.820;1.930;2023-01-29T11:52:39;101918.88;;;5.98;62.13
33625;BME280;19962;47.820;1.930;2023-01-29T11:55:32;101917.50;;;6.02;61.98
33625;BME280;19962;47.820;1.930;2023-01-29T11:58:29;101928.78;;;6.15;62.32
33625;BME280;19962;47.820;1.930;2023-01-29T12:00:56;101924.16;;;6.23;62.19
33625;BME280;19962;47.820;1.930;2023-01-29T12:03:28;101920.09;;;6.11;62.25
33625;BME280;19962;47.820;1.930;2023-01-29T12:08:44;101916.88;;;6.32;61.92
33625;BME280;19962;47.820;1.930;2023-01-29T12:11:30;101919.63;;;5.74;61.59
33625;BME280;19962;47.820;1.930;2023-01-29T12:13:59;101921.22;;;5.43;63.71
33625;BME280;19962;47.820;1.930;2023-01-29T12:16:52;101917.28;;;5.79;63.08
33625;BME280;19962;47.820;1.930;2023-01-29T12:19:44;101903.38;;;5.90;62.91
33625;BME280;19962;47.820;1.930;2023-01-29T12:30:24;101893.19;;;6.48;61.34
33625;BME280;19962;47.820;1.930;2023-01-29T12:33:29;101887.56;;;6.58;61.31
33625;BME280;19962;47.820;1.930;2023-01-29T12:36:10;101883.97;;;6.49;60.42
33625;BME280;19962;47.820;1.930;2023-01-29T12:38:39;101886.72;;;6.25;61.67
33625;BME280;19962;47.820;1.930;2023-01-29T12:41:24;101885.16;;;6.15;61.10
33625;BME280;19962;47.820;1.930;2023-01-29T12:44:00;101881.94;;;6.27;61.48
33625;BME280;19962;47.820;1.930;2023-01-29T12:46:30;101874.44;;;6.29;61.68
33625;BME280;19962;47.820;1.930;2023-01-29T12:49:00;101872.91;;;6.43;61.55
33625;BME280;19962;47.820;1.930;2023-01-29T12:51:35;101876.28;;;6.61;61.25
33625;BME280;19962;47.820;1.930;2023-01-29T12:54:09;101863.19;;;6.56;60.38
33625;BME280;19962;47.820;1.930;2023-01-29T12:56:52;101864.53;;;6.60;61.02
33625;BME280;19962;47.820;1.930;2023-01-29T13:04:41;101856.34;;;6.68;60.90
33625;BME280;19962;47.820;1.930;2023-01-29T13:07:16;101850.03;;;6.68;59.95
33625;BME280;19962;47.820;1.930;2023-01-29T13:09:50;101856.69;;;6.73;59.59
33625;BME280;19962;47.820;1.930;2023-01-29T13:12:20;101851.00;;;6.83;59.77
33625;BME280;19962;47.820;1.930;2023-01-29T13:17:22;101842.97;;;6.89;59.77
33625;BME280;19962;47.820;1.930;2023-01-29T13:19:51;101839.03;;;7.00;59.78
33625;BME280;19962;47.820;1.930;2023-01-29T13:22:25;101833.72;;;7.06;59.21
33625;BME280;19962;47.820;1.930;2023-01-29T13:24:53;101837.06;;;7.16;59.57
33625;BME280;19962;47.820;1.930;2023-01-29T13:27:27;101828.84;;;7.24;59.31
33625;BME280;19962;47.820;1.930;2023-01-29T13:29:55;101834.28;;;7.32;58.94
33625;BME280;19962;47.820;1.930;2023-01-29T13:32:30;101832.53;;;7.01;59.61
33625;BME280;19962;47.820;1.930;2023-01-29T13:35:11;101833.06;;;6.96;60.02
33625;BME280;19962;47.820;1.930;2023-01-29T13:37:41;101825.97;;;7.18;59.46
33625;BME280;19962;47.820;1.930;2023-01-29T13:40:22;101826.81;;;7.26;59.11
33625;BME280;19962;47.820;1.930;2023-01-29T13:42:49;101825.06;;;7.33;59.35
33625;BME280;19962;47.820;1.930;2023-01-29T13:45:33;101819.19;;;7.44;59.16
33625;BME280;19962;47.820;1.930;2023-01-29T13:50:47;101813.41;;;7.39;59.16
33625;BME280;19962;47.820;1.930;2023-01-29T13:53:31;101816.66;;;7.43;59.04
33625;BME280;19962;47.820;1.930;2023-01-29T13:56:28;101812.59;;;7.31;58.97
33625;BME280;19962;47.820;1.930;2023-01-29T13:58:56;101812.94;;;7.28;59.54
33625;BME280;19962;47.820;1.930;2023-01-29T14:04:21;101780.78;;;7.46;59.22
33625;BME280;19962;47.820;1.930;2023-01-29T14:06:55;101800.09;;;7.44;59.74
33625;BME280;19962;47.820;1.930;2023-01-29T14:12:33;101796.44;;;7.21;60.22
33625;BME280;19962;47.820;1.930;2023-01-29T14:15:19;101797.50;;;7.12;60.54
33625;BME280;19962;47.820;1.930;2023-01-29T14:18:04;101794.56;;;7.22;60.34
33625;BME280;19962;47.820;1.930;2023-01-29T14:23:00;101793.22;;;7.18;60.35
33625;BME280;19962;47.820;1.930;2023-01-29T14:25:34;101793.72;;;7.21;60.34
33625;BME280;19962;47.820;1.930;2023-01-29T14:28:03;101793.56;;;7.15;60.84
33625;BME280;19962;47.820;1.930;2023-01-29T14:30:39;101785.47;;;7.29;60.33
33625;BME280;19962;47.820;1.930;2023-01-29T14:33:34;101784.13;;;7.25;59.78
33625;BME280;19962;47.820;1.930;2023-01-29T14:36:11;101772.88;;;7.28;60.40
33625;BME280;19962;47.820;1.930;2023-01-29T14:38:39;101777.59;;;7.34;60.06
33625;BME280;19962;47.820;1.930;2023-01-29T14:41:28;101774.59;;;7.21;59.61
33625;BME280;19962;47.820;1.930;2023-01-29T14:46:59;101780.19;;;6.97;61.21
33625;BME280;19962;47.820;1.930;2023-01-29T14:49:56;101781.47;;;7.17;61.17
33625;BME280;19962;47.820;1.930;2023-01-29T14:52:36;101775.78;;;6.96;60.10
33625;BME280;19962;47.820;1.930;2023-01-29T14:55:07;101751.94;;;7.21;60.83
33625;BME280;19962;47.820;1.930;2023-01-29T14:57:36;101757.50;;;7.35;60.51
33625;BME280;19962;47.820;1.930;2023-01-29T15:00:05;101759.88;;;7.30;60.09
33625;BME280;19962;47.820;1.930;2023-01-29T15:02:39;101762.94;;;7.35;60.10
33625;BME280;19962;47.820;1.930;2023-01-29T15:05:11;101751.50;;;7.32;60.26
33625;BME280;19962;47.820;1.930;2023-01-29T15:08:02;101758.69;;;7.02;60.50
33625;BME280;19962;47.820;1.930;2023-01-29T15:15:37;101755.97;;;6.56;61.86
33625;BME280;19962;47.820;1.930;2023-01-29T15:18:12;101758.41;;;6.43;62.96
33625;BME280;19962;47.820;1.930;2023-01-29T15:20:41;101749.88;;;6.54;62.55
33625;BME280;19962;47.820;1.930;2023-01-29T15:23:31;101750.19;;;6.59;62.33
33625;BME280;19962;47.820;1.930;2023-01-29T15:26:04;101745.97;;;6.48;62.95